Pagrindinis puslapis
METAR-TAF:

METAR-TAF

Oro uostai :

Paksė, Laosas

platuma: 15-08-02N, ilguma: 105-46-55E, Aukštis: 107 m

Dabartinis oras

Ataskaita buvo paskelbta 7 valandos ir 8 minutes, ne 13:00 UTC
Vėjas 2 kt iš Pietų
Temperatūra 27°C
Drėgmė 89%
Slėgis 1008 hPa
Matomumas: 3000 m
Išsisklaidę debesys ne aukštis 1700 ft
Su prošvaistėmis ne aukštis 5000 ft
dulksna

METAR: VLPS 201300Z 18002KT 3000 DZ SCT017 BKN050 27/25 Q1008 NOSIG

Laikas: 03:08 (20:08 UTC)

Prognozė

Ataskaita buvo paskelbta 3 valandos ir 8 minutes, ne 17:00 UTC
Prognozė galioja nuo 20 metu 18 UTC su 21 metu 18 UTC
Vėjas 6 kt iš Rytų
Matomumas: 5000 m
Išsisklaidę debesys ne aukštis 1600 ft
Mažai debesys ne aukštis 2300 ft, Liūtiniai kamuoliniai debesys.
Su prošvaistėmis ne aukštis 5000 ft
Išsisklaidę debesys ne aukštis 10000 ft
perkūnija, lietus

TAF: VLPS 201700Z 2018/2118 09006KT 5000 TSRA SCT016 FEW023CB BKN050 SCT100

Orai ataskaitas ir orų prognozės (METAR, TAF).

turimą stotys yra geltonos ir raudonos taškus žemėlapyje.

Perkelti pele per norėdami pamatyti stoties vardą.

Tada spustelėkite, norėdami matyti oro stebėjimo ir prognozės.

Norėdami pakeisti žemėlapį: spustelėkite ant žalios mygtukų su juodo kryžiaus žemyn,; žalią mygtuką su brūkšneliu, jei norite nutolinti; arba žalių rodyklių gretimoms žemėlapius.


METAR-TAF: